createdAt,value
2022-10-07T00:00:33.214Z,5.46
2022-10-07T00:01:33.278Z,5.30
2022-10-07T00:02:34.227Z,5.30
2022-10-07T00:03:33.189Z,5.29
2022-10-07T00:04:33.165Z,5.36
2022-10-07T00:05:33.185Z,5.23
2022-10-07T00:06:33.158Z,5.21
2022-10-07T00:07:33.153Z,5.26
2022-10-07T00:08:33.138Z,5.20
2022-10-07T00:09:33.125Z,5.17
2022-10-07T00:10:33.720Z,5.20
2022-10-07T00:11:33.114Z,5.17
2022-10-07T00:12:33.106Z,5.25
2022-10-07T00:13:34.790Z,5.17
2022-10-07T00:14:33.086Z,5.18
2022-10-07T00:15:34.827Z,5.14
2022-10-07T00:16:33.166Z,5.15
2022-10-07T00:17:33.062Z,5.08
2022-10-07T00:18:34.719Z,5.10
2022-10-07T00:19:33.045Z,5.17
2022-10-07T00:20:33.038Z,5.20
2022-10-07T00:21:33.055Z,5.20
2022-10-07T00:22:33.020Z,5.21
2022-10-07T00:23:33.015Z,5.12
2022-10-07T00:24:33.004Z,5.15
2022-10-07T00:25:33.009Z,5.15
2022-10-07T00:26:34.835Z,5.20
2022-10-07T00:27:32.985Z,5.26
2022-10-07T00:28:33.065Z,5.17
2022-10-07T00:30:33.506Z,5.11
2022-10-07T00:31:33.434Z,5.20
2022-10-07T00:32:33.427Z,5.18
2022-10-07T00:33:34.507Z,5.25
2022-10-07T00:34:34.505Z,5.25
2022-10-07T00:35:35.374Z,5.20
2022-10-07T00:36:34.484Z,5.18
2022-10-07T00:37:35.379Z,5.33
2022-10-07T00:38:35.376Z,5.46
2022-10-07T00:39:34.468Z,5.41
2022-10-07T00:40:34.457Z,5.41
2022-10-07T00:41:34.451Z,5.47
2022-10-07T00:42:34.445Z,5.54
2022-10-07T00:43:34.446Z,5.50
2022-10-07T00:44:34.439Z,5.79
2022-10-07T00:45:34.463Z,5.73
2022-10-07T00:46:34.412Z,5.76
2022-10-07T00:47:34.409Z,5.82
2022-10-07T00:48:35.299Z,5.82
2022-10-07T00:49:34.404Z,5.99
2022-10-07T00:50:34.385Z,5.91
2022-10-07T00:51:34.376Z,6.07
2022-10-07T00:52:34.371Z,6.04
2022-10-07T00:53:34.361Z,6.01
2022-10-07T00:54:34.360Z,6.04
2022-10-07T00:55:34.348Z,6.11
2022-10-07T00:56:34.345Z,6.09
2022-10-07T00:57:34.331Z,6.07
2022-10-07T00:58:34.323Z,6.12
2022-10-07T00:59:35.876Z,5.97
2022-10-07T01:00:34.304Z,6.07
2022-10-07T01:01:34.356Z,6.02
2022-10-07T01:02:34.384Z,5.99
2022-10-07T01:03:34.283Z,5.90
2022-10-07T01:04:34.275Z,5.89
2022-10-07T01:05:34.273Z,5.86
2022-10-07T01:06:34.269Z,5.73
2022-10-07T01:07:34.262Z,5.72
2022-10-07T01:08:34.251Z,5.73
2022-10-07T01:09:34.245Z,5.68
2022-10-07T01:10:34.805Z,5.68
2022-10-07T01:11:34.219Z,5.59
2022-10-07T01:12:34.213Z,5.54
2022-10-07T01:13:34.807Z,5.54
2022-10-07T01:14:34.197Z,5.48
2022-10-07T01:15:34.201Z,5.46
2022-10-07T01:16:34.218Z,5.47
2022-10-07T01:17:35.882Z,5.53
2022-10-07T01:18:34.166Z,5.43
2022-10-07T01:19:34.157Z,5.54
2022-10-07T01:20:34.151Z,5.64
2022-10-07T01:21:34.147Z,5.62
2022-10-07T01:22:34.131Z,5.66
2022-10-07T01:23:34.123Z,5.68
2022-10-07T01:24:34.116Z,5.68
2022-10-07T01:25:34.817Z,5.59
2022-10-07T01:26:34.113Z,5.72
2022-10-07T01:27:34.096Z,5.71
2022-10-07T01:28:34.154Z,5.86
2022-10-07T01:29:34.079Z,5.69
2022-10-07T01:30:34.111Z,5.94
2022-10-07T01:31:34.813Z,5.97
2022-10-07T01:32:34.067Z,5.97
2022-10-07T01:33:34.052Z,6.04
2022-10-07T01:34:34.035Z,5.97
2022-10-07T01:35:34.030Z,5.87
2022-10-07T01:36:34.025Z,5.89
2022-10-07T01:37:34.020Z,5.99
2022-10-07T01:38:34.024Z,6.09
2022-10-07T01:39:33.998Z,6.05
2022-10-07T01:40:33.994Z,6.07
2022-10-07T01:41:34.027Z,6.07
2022-10-07T01:42:33.982Z,6.12
2022-10-07T01:43:33.969Z,6.07
2022-10-07T01:44:33.967Z,5.98
2022-10-07T01:45:33.955Z,6.01
2022-10-07T01:46:33.987Z,6.09
2022-10-07T01:47:33.946Z,6.02
2022-10-07T01:48:33.929Z,6.16
2022-10-07T01:49:33.922Z,6.04
2022-10-07T01:50:33.914Z,6.05
2022-10-07T01:51:33.907Z,6.04
2022-10-07T01:52:33.901Z,6.09
2022-10-07T01:53:33.889Z,6.08
2022-10-07T01:54:33.869Z,6.05
2022-10-07T01:55:34.873Z,6.12
2022-10-07T01:56:33.863Z,5.94
2022-10-07T01:57:33.868Z,5.99
2022-10-07T01:58:33.846Z,6.07
2022-10-07T01:59:33.845Z,5.98
2022-10-07T02:00:33.836Z,5.94
2022-10-07T02:01:33.861Z,5.94
2022-10-07T02:02:33.812Z,5.80
2022-10-07T02:03:33.847Z,5.72
2022-10-07T02:04:33.795Z,5.65
2022-10-07T02:05:33.794Z,5.57
2022-10-07T02:06:33.781Z,5.54
2022-10-07T02:07:33.768Z,5.56
2022-10-07T02:08:33.774Z,5.56
2022-10-07T02:09:33.754Z,5.57
2022-10-07T02:10:33.750Z,5.69
2022-10-07T02:11:33.744Z,5.75
2022-10-07T02:12:33.726Z,5.64
2022-10-07T02:13:33.718Z,5.75
2022-10-07T02:14:33.711Z,5.75
2022-10-07T02:15:33.721Z,5.80
2022-10-07T02:16:33.698Z,5.83
2022-10-07T02:17:33.684Z,5.91
2022-10-07T02:18:33.677Z,5.84
2022-10-07T02:19:33.667Z,5.83
2022-10-07T02:20:33.661Z,5.93
2022-10-07T02:21:33.662Z,5.98
2022-10-07T02:22:33.648Z,5.97
2022-10-07T02:23:33.641Z,5.90
2022-10-07T02:24:33.633Z,5.89
2022-10-07T02:25:33.625Z,5.86
2022-10-07T02:26:33.630Z,5.76
2022-10-07T02:27:34.322Z,5.87
2022-10-07T02:28:33.702Z,5.80
2022-10-07T02:29:33.592Z,5.90
2022-10-07T02:30:33.588Z,5.93
2022-10-07T02:31:33.718Z,5.86
2022-10-07T02:32:33.567Z,5.89
2022-10-07T02:33:33.561Z,5.90
2022-10-07T02:34:33.553Z,5.83
2022-10-07T02:35:33.547Z,5.61
2022-10-07T02:36:33.542Z,5.62
2022-10-07T02:37:33.542Z,5.56
2022-10-07T02:38:33.529Z,5.59
2022-10-07T02:39:33.513Z,5.41
2022-10-07T02:40:33.507Z,5.33
2022-10-07T02:41:33.504Z,5.33
2022-10-07T02:42:33.501Z,5.25
2022-10-07T02:43:33.483Z,5.35
2022-10-07T02:44:33.489Z,5.32
2022-10-07T02:45:33.482Z,5.36
2022-10-07T02:46:33.490Z,5.33
2022-10-07T02:47:33.463Z,5.30
2022-10-07T02:48:33.428Z,5.35
2022-10-07T02:49:34.440Z,5.28
2022-10-07T02:50:33.425Z,5.30
2022-10-07T02:51:33.420Z,5.32
2022-10-07T02:52:33.420Z,5.38
2022-10-07T02:53:33.404Z,5.38
2022-10-07T02:54:33.406Z,5.43
2022-10-07T02:55:33.898Z,5.41
2022-10-07T02:56:33.378Z,5.41
2022-10-07T02:57:34.329Z,5.39
2022-10-07T02:58:33.366Z,5.50
2022-10-07T02:59:33.366Z,5.44
2022-10-07T03:00:33.351Z,5.47
2022-10-07T03:01:33.443Z,5.54
2022-10-07T03:02:33.339Z,5.47
2022-10-07T03:03:33.411Z,5.53
2022-10-07T03:04:33.323Z,5.62
2022-10-07T03:05:33.306Z,5.51
2022-10-07T03:06:33.302Z,5.71
2022-10-07T03:07:33.294Z,5.69
2022-10-07T03:08:33.295Z,5.75
2022-10-07T03:09:33.281Z,5.79
2022-10-07T03:10:33.278Z,5.73
2022-10-07T03:11:33.260Z,5.76
2022-10-07T03:12:33.260Z,5.76
2022-10-07T03:13:33.263Z,5.75
2022-10-07T03:14:33.247Z,5.75
2022-10-07T03:15:33.305Z,5.62
2022-10-07T03:16:33.899Z,5.68
2022-10-07T03:17:33.220Z,5.66
2022-10-07T03:18:33.211Z,5.61
2022-10-07T03:19:33.207Z,5.62
2022-10-07T03:20:33.199Z,5.57
2022-10-07T03:21:33.181Z,5.57
2022-10-07T03:22:33.178Z,5.57
2022-10-07T03:23:33.171Z,5.59
2022-10-07T03:24:33.168Z,5.75
2022-10-07T03:25:33.151Z,5.68
2022-10-07T03:26:33.140Z,5.73
2022-10-07T03:27:33.136Z,5.75
2022-10-07T03:28:33.202Z,5.75
2022-10-07T03:29:33.124Z,5.75
2022-10-07T03:30:33.106Z,5.72
2022-10-07T03:31:33.128Z,5.82
2022-10-07T03:32:33.096Z,5.80
2022-10-07T03:33:33.093Z,5.75
2022-10-07T03:34:33.086Z,5.73
2022-10-07T03:35:33.068Z,5.75
2022-10-07T03:36:33.063Z,5.71
2022-10-07T03:37:33.059Z,5.65
2022-10-07T03:38:33.058Z,5.66
2022-10-07T03:39:33.049Z,5.71
2022-10-07T03:40:33.038Z,5.65
2022-10-07T03:41:33.022Z,5.65
2022-10-07T03:42:35.847Z,5.83
2022-10-07T03:43:33.010Z,5.71
2022-10-07T03:44:33.002Z,5.72
2022-10-07T03:45:35.920Z,5.75
2022-10-07T03:46:34.014Z,5.69
2022-10-07T03:47:32.968Z,5.62
2022-10-07T03:48:32.966Z,5.59
2022-10-07T03:49:32.966Z,5.56
2022-10-07T03:50:32.945Z,5.51
2022-10-07T03:51:32.939Z,5.48
2022-10-07T03:52:32.939Z,5.36
2022-10-07T03:53:32.920Z,5.33
2022-10-07T03:54:32.912Z,5.30
2022-10-07T03:55:32.905Z,5.26
2022-10-07T03:56:33.412Z,5.36
2022-10-07T03:57:32.900Z,5.26
2022-10-07T03:58:32.886Z,5.36
2022-10-07T03:59:32.878Z,5.33
2022-10-07T04:00:32.874Z,5.38
2022-10-07T04:01:32.915Z,5.41
2022-10-07T04:02:32.897Z,5.43
2022-10-07T04:03:33.417Z,5.46
2022-10-07T04:04:32.837Z,5.44
2022-10-07T04:05:32.840Z,5.44
2022-10-07T04:06:32.829Z,5.39
2022-10-07T04:07:32.816Z,5.47
2022-10-07T04:08:32.985Z,5.44
2022-10-07T04:09:32.798Z,5.36
2022-10-07T04:10:32.796Z,5.43
2022-10-07T04:11:32.793Z,5.46
2022-10-07T04:12:32.776Z,5.44
2022-10-07T04:13:32.767Z,5.50
2022-10-07T04:14:32.767Z,5.48
2022-10-07T04:15:32.757Z,5.47
2022-10-07T04:16:37.169Z,5.53
2022-10-07T04:17:34.747Z,5.51
2022-10-07T04:18:32.758Z,5.50
2022-10-07T04:19:32.721Z,5.39
2022-10-07T04:20:32.725Z,5.46
2022-10-07T04:21:32.739Z,5.35
2022-10-07T04:22:32.699Z,5.51
2022-10-07T04:23:32.690Z,5.43
2022-10-07T04:24:32.692Z,5.48
2022-10-07T04:25:32.685Z,5.48
2022-10-07T04:26:32.669Z,5.44
2022-10-07T04:27:50.721Z,5.30
2022-10-07T04:28:34.824Z,5.47
2022-10-07T04:29:39.129Z,5.41
2022-10-07T04:30:34.657Z,5.35
2022-10-07T04:31:33.668Z,5.44
2022-10-07T04:32:32.634Z,5.47
2022-10-07T04:33:32.618Z,5.46
2022-10-07T04:34:32.615Z,5.56
2022-10-07T04:35:32.611Z,5.53
2022-10-07T04:36:32.600Z,5.41
2022-10-07T04:37:32.591Z,5.44
2022-10-07T04:38:32.587Z,5.43
2022-10-07T04:39:56.197Z,5.44
2022-10-07T04:40:35.347Z,5.44
2022-10-07T04:41:32.566Z,5.39
2022-10-07T04:42:32.552Z,5.51
2022-10-07T04:43:32.542Z,5.53
2022-10-07T04:44:32.553Z,5.44
2022-10-07T04:45:32.532Z,5.44
2022-10-07T04:46:32.563Z,5.46
2022-10-07T04:47:32.522Z,5.46
2022-10-07T04:48:32.509Z,5.44
2022-10-07T04:49:32.500Z,5.35
2022-10-07T04:50:33.346Z,5.30
2022-10-07T04:51:32.485Z,5.28
2022-10-07T04:52:32.476Z,5.30
2022-10-07T04:53:33.350Z,5.14
2022-10-07T04:54:32.527Z,5.17
2022-10-07T04:55:32.460Z,5.20
2022-10-07T04:56:32.967Z,5.21
2022-10-07T04:57:32.435Z,5.26
2022-10-07T04:58:32.430Z,5.35
2022-10-07T04:59:33.724Z,5.28
2022-10-07T05:00:32.528Z,5.23
2022-10-07T05:01:32.411Z,5.32
2022-10-07T05:02:32.423Z,5.25
2022-10-07T05:03:32.392Z,5.23
2022-10-07T05:04:32.379Z,5.26
2022-10-07T05:05:32.366Z,5.29
2022-10-07T05:06:32.367Z,5.21
2022-10-07T05:07:32.355Z,5.14
2022-10-07T05:08:32.350Z,5.15
2022-10-07T05:09:32.387Z,5.14
2022-10-07T05:10:32.923Z,5.05
2022-10-07T05:11:32.343Z,5.14
2022-10-07T05:12:32.326Z,5.14
2022-10-07T05:13:32.306Z,5.05
2022-10-07T05:14:32.304Z,5.14
2022-10-07T05:15:32.297Z,5.08
2022-10-07T05:16:32.358Z,5.10
2022-10-07T05:17:32.304Z,5.17
2022-10-07T05:18:32.279Z,5.17
2022-10-07T05:19:32.261Z,5.11
2022-10-07T05:20:32.272Z,5.05
2022-10-07T05:21:32.257Z,5.02
2022-10-07T05:22:32.246Z,4.92
2022-10-07T05:23:32.243Z,4.92
2022-10-07T05:24:32.885Z,5.04
2022-10-07T05:25:32.217Z,4.97
2022-10-07T05:26:32.222Z,4.99
2022-10-07T05:27:32.235Z,5.04
2022-10-07T05:28:32.251Z,5.05
2022-10-07T05:29:32.189Z,5.05
2022-10-07T05:30:32.180Z,5.11
2022-10-07T05:31:32.243Z,5.10
2022-10-07T05:32:32.160Z,5.26
2022-10-07T05:33:32.160Z,5.12
2022-10-07T05:34:32.177Z,5.21
2022-10-07T05:35:32.132Z,5.23
2022-10-07T05:36:32.140Z,5.15
2022-10-07T05:37:32.132Z,5.18
2022-10-07T05:38:32.115Z,5.11
2022-10-07T05:39:32.123Z,5.07
2022-10-07T05:40:32.095Z,5.10
2022-10-07T05:41:32.088Z,5.12
2022-10-07T05:42:32.079Z,5.10
2022-10-07T05:43:32.074Z,5.10
2022-10-07T05:44:32.075Z,5.15
2022-10-07T05:45:32.119Z,5.14
2022-10-07T05:46:32.057Z,5.18
2022-10-07T05:47:32.048Z,5.14
2022-10-07T05:48:36.589Z,5.17
2022-10-07T05:49:34.036Z,5.20
2022-10-07T05:50:32.030Z,5.14
2022-10-07T05:51:32.017Z,5.10
2022-10-07T05:52:32.005Z,5.12
2022-10-07T05:53:31.996Z,5.18
2022-10-07T05:54:31.994Z,5.26
2022-10-07T05:55:34.688Z,5.08
2022-10-07T05:56:31.985Z,5.07
2022-10-07T05:57:31.980Z,5.08
2022-10-07T05:58:32.969Z,5.15
2022-10-07T05:59:33.929Z,5.14
2022-10-07T06:00:31.989Z,5.12
2022-10-07T06:01:31.951Z,5.15
2022-10-07T06:02:32.027Z,5.21
2022-10-07T06:03:31.926Z,5.25
2022-10-07T06:04:33.877Z,5.20
2022-10-07T06:05:31.914Z,5.25
2022-10-07T06:06:31.906Z,5.35
2022-10-07T06:07:31.891Z,5.26
2022-10-07T06:08:31.887Z,5.30
2022-10-07T06:09:31.876Z,5.21
2022-10-07T06:10:31.865Z,5.30
2022-10-07T06:11:31.855Z,5.15
2022-10-07T06:12:31.843Z,5.35
2022-10-07T06:13:31.848Z,5.26
2022-10-07T06:14:32.444Z,5.21
2022-10-07T06:15:31.904Z,5.26
2022-10-07T06:16:31.891Z,5.25
2022-10-07T06:17:31.802Z,5.21
2022-10-07T06:18:31.819Z,5.25
2022-10-07T06:19:31.793Z,5.17
2022-10-07T06:20:31.780Z,5.28
2022-10-07T06:21:31.780Z,5.36
2022-10-07T06:22:31.765Z,5.28
2022-10-07T06:23:32.381Z,5.41
2022-10-07T06:24:31.749Z,5.29
2022-10-07T06:25:31.744Z,5.35
2022-10-07T06:26:31.739Z,5.29
2022-10-07T06:27:31.741Z,5.36
2022-10-07T06:28:31.805Z,5.44
2022-10-07T06:29:32.366Z,5.39
2022-10-07T06:30:31.773Z,5.50
2022-10-07T06:31:31.699Z,5.41
2022-10-07T06:32:31.698Z,5.46
2022-10-07T06:33:31.692Z,5.48
2022-10-07T06:34:31.677Z,5.43
2022-10-07T06:35:31.666Z,5.43
2022-10-07T06:36:31.658Z,5.48
2022-10-07T06:37:31.776Z,5.32
2022-10-07T06:38:31.653Z,5.38
2022-10-07T06:39:31.644Z,5.41
2022-10-07T06:40:31.628Z,5.30
2022-10-07T06:41:31.637Z,5.38
2022-10-07T06:42:31.618Z,5.39
2022-10-07T06:43:31.607Z,5.43
2022-10-07T06:44:31.598Z,5.41
2022-10-07T06:45:31.793Z,5.39
2022-10-07T06:46:31.689Z,5.43
2022-10-07T06:47:31.573Z,5.47
2022-10-07T06:48:31.572Z,5.47
2022-10-07T06:49:31.582Z,5.59
2022-10-07T06:50:31.559Z,5.62
2022-10-07T06:51:31.558Z,5.73
2022-10-07T06:52:31.536Z,5.71
2022-10-07T06:53:31.542Z,5.73
2022-10-07T06:54:31.565Z,5.86
2022-10-07T06:55:31.517Z,5.84
2022-10-07T06:56:31.528Z,5.94
2022-10-07T06:57:45.252Z,5.87
2022-10-07T06:58:33.494Z,5.84
2022-10-07T06:59:31.565Z,5.73
2022-10-07T07:00:31.489Z,5.87
2022-10-07T07:01:32.537Z,5.91
2022-10-07T07:02:31.547Z,5.93
2022-10-07T07:03:31.454Z,5.91
2022-10-07T07:04:31.446Z,5.86
2022-10-07T07:05:32.957Z,5.91
2022-10-07T07:06:31.432Z,6.04
2022-10-07T07:07:31.428Z,6.04
2022-10-07T07:08:31.413Z,6.16
2022-10-07T07:09:31.405Z,5.99
2022-10-07T07:10:31.403Z,6.19
2022-10-07T07:11:31.409Z,6.20
2022-10-07T07:12:35.466Z,6.14
2022-10-07T07:13:31.383Z,6.20
2022-10-07T07:14:34.913Z,6.22
2022-10-07T07:15:31.364Z,6.22
2022-10-07T07:16:31.421Z,6.28
2022-10-07T07:17:33.350Z,6.27
2022-10-07T07:18:31.947Z,6.44
2022-10-07T07:19:35.459Z,6.56
2022-10-07T07:20:38.375Z,6.54
2022-10-07T07:21:31.303Z,6.59
2022-10-07T07:22:31.328Z,6.66
2022-10-07T07:23:31.327Z,6.56
2022-10-07T07:24:31.284Z,6.69
2022-10-07T07:25:31.294Z,6.74
2022-10-07T07:26:31.267Z,6.77
2022-10-07T07:27:31.267Z,6.63
2022-10-07T07:28:31.364Z,6.64
2022-10-07T07:29:31.256Z,6.56
2022-10-07T07:30:31.262Z,6.75
2022-10-07T07:31:31.879Z,6.78
2022-10-07T07:32:31.254Z,6.92
2022-10-07T07:33:31.216Z,7.10
2022-10-07T07:34:31.207Z,7.17
2022-10-07T07:35:31.199Z,7.21
2022-10-07T07:36:31.202Z,7.17
2022-10-07T07:37:31.190Z,7.17
2022-10-07T07:38:31.173Z,7.25
2022-10-07T07:39:31.167Z,7.31
2022-10-07T07:40:31.170Z,7.43
2022-10-07T07:41:31.154Z,7.40
2022-10-07T07:42:31.142Z,7.56
2022-10-07T07:43:31.144Z,7.63
2022-10-07T07:44:34.129Z,7.80
2022-10-07T07:45:32.139Z,7.94
2022-10-07T07:46:31.127Z,7.79
2022-10-07T07:47:31.114Z,7.48
2022-10-07T07:48:31.100Z,7.32
2022-10-07T07:49:31.090Z,7.32
2022-10-07T07:50:32.873Z,7.36
2022-10-07T07:51:31.066Z,7.39
2022-10-07T07:52:31.965Z,7.35
2022-10-07T07:53:31.109Z,7.36
2022-10-07T07:54:32.952Z,7.32
2022-10-07T07:55:31.032Z,7.50
2022-10-07T07:56:31.024Z,7.57
2022-10-07T07:57:31.016Z,7.60
2022-10-07T07:58:31.029Z,7.53
2022-10-07T07:59:31.009Z,7.67
2022-10-07T08:00:30.997Z,7.58
2022-10-07T08:01:31.029Z,7.53
2022-10-07T08:02:32.024Z,7.56
2022-10-07T08:03:30.994Z,7.80
2022-10-07T08:04:30.975Z,7.80
2022-10-07T08:05:33.888Z,7.97
2022-10-07T08:06:30.964Z,8.09
2022-10-07T08:07:30.952Z,8.20
2022-10-07T08:08:30.946Z,8.27
2022-10-07T08:09:30.957Z,8.27
2022-10-07T08:10:32.454Z,8.15
2022-10-07T08:11:30.913Z,8.06
2022-10-07T08:12:30.913Z,8.08
2022-10-07T08:13:30.898Z,8.28
2022-10-07T08:14:30.901Z,8.52
2022-10-07T08:15:30.912Z,8.58
2022-10-07T08:16:30.873Z,8.85
2022-10-07T08:17:32.459Z,9.10
2022-10-07T08:18:30.855Z,9.25
2022-10-07T08:19:30.868Z,9.46
2022-10-07T08:20:30.834Z,9.62
2022-10-07T08:21:31.393Z,9.87
2022-10-07T08:22:30.820Z,9.91
2022-10-07T08:23:30.817Z,9.92
2022-10-07T08:24:30.807Z,9.74
2022-10-07T08:25:31.390Z,9.37
2022-10-07T08:26:30.796Z,9.48
2022-10-07T08:27:30.800Z,9.55
2022-10-07T08:28:30.828Z,9.50
2022-10-07T08:29:30.771Z,9.25
2022-10-07T08:30:30.767Z,9.41
2022-10-07T08:31:31.124Z,9.43
2022-10-07T08:32:30.774Z,9.28
2022-10-07T08:33:30.731Z,8.95
2022-10-07T08:34:30.729Z,8.99
2022-10-07T08:35:30.726Z,9.03
2022-10-07T08:36:31.712Z,9.06
2022-10-07T08:37:30.726Z,9.22
2022-10-07T08:38:30.703Z,9.16
2022-10-07T08:39:30.691Z,9.13
2022-10-07T08:40:30.980Z,9.13
2022-10-07T08:41:32.500Z,9.03
2022-10-07T08:42:31.673Z,9.06
2022-10-07T08:43:30.652Z,8.89
2022-10-07T08:44:30.643Z,8.89
2022-10-07T08:45:30.638Z,8.81
2022-10-07T08:46:30.655Z,8.74
2022-10-07T08:47:30.634Z,8.78
2022-10-07T08:48:30.623Z,8.67
2022-10-07T08:49:30.605Z,8.70
2022-10-07T08:50:30.608Z,8.66
2022-10-07T08:51:30.587Z,8.58
2022-10-07T08:52:31.395Z,8.67
2022-10-07T08:53:30.580Z,8.67
2022-10-07T08:54:30.578Z,8.76
2022-10-07T08:55:31.508Z,8.85
2022-10-07T08:56:30.558Z,8.74
2022-10-07T08:57:32.394Z,8.70
2022-10-07T08:58:30.562Z,8.74
2022-10-07T08:59:30.535Z,8.71
2022-10-07T09:00:30.515Z,8.91
2022-10-07T09:01:30.600Z,9.00
2022-10-07T09:02:30.521Z,9.00
2022-10-07T09:03:31.472Z,8.89
2022-10-07T09:04:30.489Z,9.00
2022-10-07T09:05:30.487Z,8.85
2022-10-07T09:06:30.475Z,9.03
2022-10-07T09:07:30.476Z,8.97
2022-10-07T09:08:30.461Z,9.10
2022-10-07T09:09:30.454Z,9.18
2022-10-07T09:10:30.438Z,9.16
2022-10-07T09:11:31.444Z,9.23
2022-10-07T09:12:31.400Z,9.31
2022-10-07T09:14:36.406Z,9.44
2022-10-07T09:15:36.442Z,9.50
2022-10-07T09:16:37.499Z,9.54
2022-10-07T09:17:37.480Z,9.55
2022-10-07T09:18:37.467Z,9.64
2022-10-07T09:19:37.460Z,9.64
2022-10-07T09:20:38.130Z,9.66
2022-10-07T09:21:37.453Z,9.76
2022-10-07T09:22:37.445Z,9.83
2022-10-07T09:23:37.420Z,9.82
2022-10-07T09:24:37.513Z,9.86
2022-10-07T09:25:37.411Z,10.02
2022-10-07T09:26:37.536Z,9.99
2022-10-07T09:27:37.391Z,10.10
2022-10-07T09:28:37.466Z,10.19
2022-10-07T09:29:37.479Z,10.34
2022-10-07T09:30:38.051Z,10.37
2022-10-07T09:31:37.448Z,10.41
2022-10-07T09:32:37.358Z,10.54
2022-10-07T09:33:38.128Z,10.56
2022-10-07T09:34:37.336Z,10.71
2022-10-07T09:35:37.322Z,10.61
2022-10-07T09:36:37.323Z,10.78
2022-10-07T09:37:38.305Z,10.82
2022-10-07T09:38:37.316Z,10.82
2022-10-07T09:39:37.309Z,10.94
2022-10-07T09:40:37.296Z,11.00
2022-10-07T09:41:37.279Z,11.14
2022-10-07T09:42:37.266Z,11.14
2022-10-07T09:43:37.271Z,11.19
2022-10-07T09:44:37.270Z,11.22
2022-10-07T09:45:37.246Z,11.25
2022-10-07T09:46:37.278Z,11.29
2022-10-07T09:47:37.225Z,11.33
2022-10-07T09:48:37.232Z,11.32
2022-10-07T09:49:37.215Z,11.50
2022-10-07T09:50:37.239Z,11.44
2022-10-07T09:51:37.212Z,11.52
2022-10-07T09:52:37.205Z,11.60
2022-10-07T09:53:37.190Z,11.63
2022-10-07T09:54:37.178Z,11.63
2022-10-07T09:55:37.166Z,11.69
2022-10-07T09:56:37.165Z,11.84
2022-10-07T09:57:37.149Z,11.90
2022-10-07T09:58:37.184Z,12.03
2022-10-07T09:59:37.646Z,12.12
2022-10-07T10:00:37.144Z,12.12
2022-10-07T10:01:37.155Z,12.13
2022-10-07T10:02:37.260Z,12.24
2022-10-07T10:03:37.195Z,12.28
2022-10-07T10:04:37.098Z,12.32
2022-10-07T10:05:37.107Z,12.37
2022-10-07T10:06:37.072Z,12.49
2022-10-07T10:07:37.075Z,12.50
2022-10-07T10:08:37.091Z,12.58
2022-10-07T10:10:43.895Z,12.75
2022-10-07T10:11:43.897Z,12.82
2022-10-07T10:12:44.136Z,12.83
2022-10-07T10:13:43.875Z,12.91
2022-10-07T10:14:43.869Z,12.95
2022-10-07T10:15:43.929Z,12.94
2022-10-07T10:16:43.853Z,12.94
2022-10-07T10:17:43.845Z,13.00
2022-10-07T10:18:43.835Z,13.11
2022-10-07T10:19:43.825Z,13.16
2022-10-07T10:20:43.822Z,13.08
2022-10-07T10:21:43.836Z,13.09
2022-10-07T10:22:44.055Z,13.11
2022-10-07T10:23:43.787Z,13.18
2022-10-07T10:24:43.811Z,13.09
2022-10-07T10:25:43.786Z,13.28
2022-10-07T10:26:43.768Z,13.33
2022-10-07T10:27:43.797Z,13.44
2022-10-07T10:28:43.800Z,13.47
2022-10-07T10:29:43.742Z,13.68
2022-10-07T10:30:44.745Z,13.70
2022-10-07T10:31:43.728Z,13.70
2022-10-07T10:32:45.151Z,13.79
2022-10-07T10:33:44.811Z,13.86
2022-10-07T10:34:45.349Z,13.95
2022-10-07T10:35:44.793Z,13.96
2022-10-07T10:36:44.797Z,13.99
2022-10-07T10:37:44.782Z,13.97
2022-10-07T10:38:44.767Z,14.23
2022-10-07T10:39:44.763Z,14.12
2022-10-07T10:40:44.797Z,14.18
2022-10-07T10:41:44.737Z,14.22
2022-10-07T10:42:45.151Z,14.25
2022-10-07T10:43:44.722Z,14.36
2022-10-07T10:44:44.718Z,14.36
2022-10-07T10:45:44.706Z,14.43
2022-10-07T10:46:48.448Z,14.40
2022-10-07T10:47:46.696Z,14.59
2022-10-07T10:48:44.701Z,14.65
2022-10-07T10:49:44.682Z,14.65
2022-10-07T10:50:44.662Z,14.69
2022-10-07T10:51:44.668Z,14.81
2022-10-07T10:52:44.861Z,14.84
2022-10-07T10:53:44.653Z,14.88
2022-10-07T10:54:44.634Z,14.86
2022-10-07T10:55:44.653Z,15.00
2022-10-07T10:56:44.617Z,15.03
2022-10-07T10:57:44.644Z,15.00
2022-10-07T10:58:44.612Z,15.07
2022-10-07T10:59:44.600Z,15.10
2022-10-07T11:00:45.271Z,15.14
2022-10-07T11:01:44.617Z,15.17
2022-10-07T11:02:44.909Z,15.22
2022-10-07T11:03:44.562Z,15.18
2022-10-07T11:04:46.355Z,15.33
2022-10-07T11:05:44.648Z,15.42
2022-10-07T11:06:48.365Z,15.52
2022-10-07T11:07:44.566Z,15.68
2022-10-07T11:08:49.296Z,15.72
2022-10-07T11:09:44.516Z,15.83
2022-10-07T11:10:44.514Z,15.92
2022-10-07T11:11:44.508Z,15.92
2022-10-07T11:12:45.552Z,16.04
2022-10-07T11:13:44.515Z,16.09
2022-10-07T11:14:44.504Z,16.20
2022-10-07T11:15:45.523Z,16.23
2022-10-07T11:16:44.487Z,16.31
2022-10-07T11:17:45.496Z,16.31
2022-10-07T11:18:44.445Z,16.33
2022-10-07T11:19:44.445Z,16.38
2022-10-07T11:20:44.933Z,16.50
2022-10-07T11:21:45.634Z,16.47
2022-10-07T11:22:44.885Z,16.51
2022-10-07T11:23:44.421Z,16.54
2022-10-07T11:25:17.801Z,16.69
2022-10-07T11:25:44.391Z,16.76
2022-10-07T11:26:44.383Z,16.79
2022-10-07T11:27:44.402Z,16.74
2022-10-07T11:28:44.419Z,16.79
2022-10-07T11:29:44.364Z,16.76
2022-10-07T11:30:44.356Z,16.81
2022-10-07T11:31:44.481Z,16.87
2022-10-07T11:32:44.672Z,16.79
2022-10-07T11:33:44.325Z,16.93
2022-10-07T11:34:44.334Z,16.97
2022-10-07T11:35:44.310Z,17.08
2022-10-07T11:36:44.297Z,17.06
2022-10-07T11:37:44.284Z,17.05
2022-10-07T11:38:44.276Z,17.05
2022-10-07T11:39:44.272Z,17.04
2022-10-07T11:40:44.299Z,17.02
2022-10-07T11:41:44.253Z,16.96
2022-10-07T11:42:44.808Z,17.04
2022-10-07T11:43:44.228Z,17.06
2022-10-07T11:44:45.226Z,16.96
2022-10-07T11:45:44.246Z,17.08
2022-10-07T11:46:44.297Z,17.15
2022-10-07T11:47:44.254Z,17.11
2022-10-07T11:48:44.806Z,17.14
2022-10-07T11:49:44.255Z,17.15
2022-10-07T11:50:44.957Z,17.26
2022-10-07T11:51:44.182Z,17.27
2022-10-07T11:52:44.385Z,17.36
2022-10-07T11:53:44.149Z,17.44
2022-10-07T11:54:44.148Z,17.42
2022-10-07T11:55:44.132Z,17.59
2022-10-07T11:56:44.126Z,17.57
2022-10-07T11:57:44.127Z,17.52
2022-10-07T11:58:44.115Z,17.60
2022-10-07T11:59:44.113Z,17.74
2022-10-07T12:00:44.105Z,17.76
2022-10-07T12:01:44.148Z,17.74
2022-10-07T12:02:44.430Z,17.74
2022-10-07T12:03:44.086Z,17.82
2022-10-07T12:04:44.066Z,17.78
2022-10-07T12:05:44.056Z,17.82
2022-10-07T12:06:44.075Z,17.83
2022-10-07T12:07:44.046Z,17.80
2022-10-07T12:08:44.059Z,17.80
2022-10-07T12:09:44.031Z,17.89
2022-10-07T12:10:44.017Z,17.85
2022-10-07T12:11:44.008Z,17.98
2022-10-07T12:12:45.462Z,17.98
2022-10-07T12:13:44.011Z,17.98
2022-10-07T12:14:44.419Z,18.07
2022-10-07T12:15:43.975Z,18.01
2022-10-07T12:16:44.050Z,17.98
2022-10-07T12:17:43.969Z,17.98
2022-10-07T12:18:43.960Z,17.95
2022-10-07T12:19:43.954Z,17.98
2022-10-07T12:20:43.939Z,17.97
2022-10-07T12:21:44.818Z,18.05
2022-10-07T12:22:44.258Z,18.04
2022-10-07T12:23:43.910Z,18.08
2022-10-07T12:24:43.920Z,18.19
2022-10-07T12:25:43.909Z,18.10
2022-10-07T12:26:43.888Z,18.13
2022-10-07T12:27:43.877Z,18.20
2022-10-07T12:28:44.879Z,18.19
2022-10-07T12:29:43.863Z,18.29
2022-10-07T12:30:43.848Z,18.29
2022-10-07T12:31:43.901Z,18.31
2022-10-07T12:32:44.238Z,18.35
2022-10-07T12:33:43.847Z,18.20
2022-10-07T12:34:43.824Z,18.20
2022-10-07T12:35:43.828Z,18.31
2022-10-07T12:36:43.811Z,18.29
2022-10-07T12:37:43.798Z,18.38
2022-10-07T12:38:43.785Z,18.40
2022-10-07T12:39:43.805Z,18.38
2022-10-07T12:40:43.767Z,18.40
2022-10-07T12:41:43.758Z,18.37
2022-10-07T12:42:44.049Z,18.35
2022-10-07T12:43:43.794Z,18.29
2022-10-07T12:44:43.737Z,18.35
2022-10-07T12:45:44.750Z,18.38
2022-10-07T12:46:43.728Z,18.45
2022-10-07T12:47:43.713Z,18.44
2022-10-07T12:48:43.721Z,18.52
2022-10-07T12:49:43.695Z,18.62
2022-10-07T12:50:43.727Z,18.55
2022-10-07T12:51:43.682Z,18.52
2022-10-07T12:52:44.052Z,18.58
2022-10-07T12:53:43.679Z,18.59
2022-10-07T12:54:43.664Z,18.65
2022-10-07T12:55:43.662Z,18.63
2022-10-07T12:56:43.672Z,18.66
2022-10-07T12:57:43.667Z,18.71
2022-10-07T12:58:43.640Z,18.71
2022-10-07T12:59:45.325Z,18.73
2022-10-07T13:00:44.724Z,18.70
2022-10-07T13:01:43.801Z,18.71
2022-10-07T13:02:44.100Z,18.68
2022-10-07T13:03:43.613Z,18.66
2022-10-07T13:04:43.597Z,18.81
2022-10-07T13:05:43.573Z,18.81
2022-10-07T13:06:43.561Z,18.78
2022-10-07T13:07:43.563Z,18.81
2022-10-07T13:08:43.559Z,18.75
2022-10-07T13:09:44.537Z,18.80
2022-10-07T13:10:43.533Z,18.78
2022-10-07T13:11:47.667Z,18.77
2022-10-07T13:12:44.892Z,18.77
2022-10-07T13:13:44.340Z,18.73